Time;durP1;ratioP1;P1;durP2;ratioP2;P2;SDS_P1;SDS_P2;PMS_P1;PMS_P2;Temp;Humidity;BMP_temperature;BMP_pressure;BME280_temperature;BME280_humidity;BME280_pressure;Samples;Min_cycle;Max_cycle;Signal;HPM_P1;HPM_P2
2022/12/25 00:01:47;;;;;;;20.17;7.90;;;;;;;12.28;63.91;101372.19;5096675;28;20079;-67
2022/12/25 00:04:13;;;;;;;23.88;8.35;;;;;;;12.28;64.19;101370.38;5096777;28;20036;-67
2022/12/25 00:06:40;;;;;;;25.17;7.47;;;;;;;12.31;64.34;101369.28;5096738;28;20036;-68
2022/12/25 00:09:06;;;;;;;23.42;8.88;;;;;;;12.34;64.12;101363.69;5096508;28;20060;-67
2022/12/25 00:11:33;;;;;;;21.33;8.10;;;;;;;12.35;64.05;101354.63;5096413;28;20040;-68
2022/12/25 00:14:00;;;;;;;21.33;8.18;;;;;;;12.37;64.34;101347.31;5096901;28;20043;-68
2022/12/25 00:16:27;;;;;;;17.88;7.60;;;;;;;12.38;64.26;101354.41;5096753;28;20521;-67
2022/12/25 00:18:55;;;;;;;15.00;7.30;;;;;;;12.41;64.35;101367.66;5096293;28;20048;-68
2022/12/25 00:21:22;;;;;;;22.45;7.95;;;;;;;12.43;64.21;101363.03;5096518;28;20035;-68
2022/12/25 00:23:53;;;;;;;16.33;7.45;;;;;;;12.46;64.24;101367.34;5096832;28;20048;-67
2022/12/25 00:26:20;;;;;;;17.48;7.57;;;;;;;12.48;64.40;101360.00;5096418;28;20461;-68
2022/12/25 00:28:46;;;;;;;19.45;7.40;;;;;;;12.50;64.43;101360.78;5095673;28;20101;-67
2022/12/25 00:31:16;;;;;;;21.80;7.82;;;;;;;12.50;64.56;101361.63;5094579;28;20480;-67
2022/12/25 00:33:44;;;;;;;23.60;8.50;;;;;;;12.53;64.48;101361.41;5096101;28;20048;-68
2022/12/25 00:36:13;;;;;;;21.58;8.23;;;;;;;12.56;64.60;101354.94;5095570;28;20052;-68
2022/12/25 00:38:40;;;;;;;23.77;8.27;;;;;;;12.59;64.44;101349.34;5095900;28;20596;-68
2022/12/25 00:41:10;;;;;;;24.35;8.35;;;;;;;12.61;64.32;101353.66;5096056;28;20040;-68
2022/12/25 00:43:40;;;;;;;23.27;8.68;;;;;;;12.61;64.64;101353.66;5095894;28;20490;-68
2022/12/25 00:46:08;;;;;;;22.63;7.88;;;;;;;12.62;64.63;101347.28;5096127;28;20440;-67
2022/12/25 00:48:36;;;;;;;25.98;7.93;;;;;;;12.62;64.61;101349.97;5095804;28;20040;-67
2022/12/25 00:51:09;;;;;;;22.33;8.27;;;;;;;12.62;64.53;101349.97;5095932;28;20394;-67
2022/12/25 00:53:36;;;;;;;16.42;7.93;;;;;;;12.64;64.75;101350.75;5095338;28;20036;-68
2022/12/25 00:56:06;;;;;;;19.45;7.25;;;;;;;12.67;64.68;101344.28;5090965;28;20036;-68
2022/12/25 00:58:34;;;;;;;19.05;7.40;;;;;;;12.68;64.96;101344.19;5095715;28;20048;-68
2022/12/25 01:01:01;;;;;;;19.20;7.65;;;;;;;12.70;64.40;101353.03;5095722;28;20036;-67
2022/12/25 01:03:28;;;;;;;22.05;8.00;;;;;;;12.70;64.63;101353.03;5095378;28;20040;-68
2022/12/25 01:06:00;;;;;;;20.25;7.85;;;;;;;12.71;64.67;101352.03;5094589;28;20040;-68
2022/12/25 01:08:33;;;;;;;21.85;7.88;;;;;;;12.75;64.72;101338.34;5074308;28;20524;-68
2022/12/25 01:11:03;;;;;;;18.52;7.65;;;;;;;12.76;64.92;101340.06;5075572;28;20056;-68
2022/12/25 01:13:33;;;;;;;27.08;8.43;;;;;;;12.77;64.88;101339.97;5075442;28;20044;-68
2022/12/25 01:16:10;;;;;;;27.23;8.43;;;;;;;12.77;64.61;101339.09;5075316;28;20041;-67
2022/12/25 01:18:37;;;;;;;17.63;7.47;;;;;;;12.78;64.90;101336.28;5075305;28;20055;-68
2022/12/25 01:21:14;;;;;;;21.33;8.50;;;;;;;12.79;64.95;101339.84;5084879;28;20086;-67
2022/12/25 01:23:42;;;;;;;18.35;8.15;;;;;;;12.80;65.18;101337.03;5095239;28;20131;-68
2022/12/25 01:26:11;;;;;;;33.33;8.85;;;;;;;12.81;64.74;101336.06;5095121;28;20047;-67
2022/12/25 01:28:38;;;;;;;15.65;7.65;;;;;;;12.80;65.09;101342.44;5094946;28;20036;-67
2022/12/25 01:31:08;;;;;;;16.88;7.55;;;;;;;12.82;65.01;101339.63;5095007;28;20478;-68
2022/12/25 01:33:35;;;;;;;21.70;7.47;;;;;;;12.84;64.98;101341.25;5095095;28;20037;-67
2022/12/25 01:36:01;;;;;;;26.52;8.70;;;;;;;12.85;65.13;101337.56;5094843;28;20047;-67
2022/12/25 01:38:28;;;;;;;20.88;7.80;;;;;;;12.85;65.06;101347.50;5094232;28;20490;-67
2022/12/25 01:40:54;;;;;;;19.35;8.45;;;;;;;12.85;64.92;101350.19;5094798;28;20468;-68
2022/12/25 01:43:24;;;;;;;21.13;8.25;;;;;;;12.84;65.25;101348.47;5094501;28;20486;-67
2022/12/25 01:45:51;;;;;;;21.85;8.75;;;;;;;12.82;64.73;101348.56;5093715;28;20043;-67
2022/12/25 01:48:26;;;;;;;16.80;8.02;;;;;;;12.83;65.05;101352.13;5074586;28;20057;-67
2022/12/25 01:50:57;;;;;;;18.43;7.23;;;;;;;12.83;65.21;101358.38;5074578;28;20437;-68
2022/12/25 01:53:25;;;;;;;21.40;7.18;;;;;;;12.83;65.13;101350.28;5074133;28;20445;-67
2022/12/25 01:55:57;;;;;;;23.95;7.78;;;;;;;12.83;64.76;101354.81;5075391;28;20037;-67
2022/12/25 01:58:24;;;;;;;21.55;7.82;;;;;;;12.84;64.79;101360.09;5074172;28;20068;-67
2022/12/25 02:00:52;;;;;;;22.55;7.65;;;;;;;12.85;65.24;101366.34;5073130;28;20044;-68
2022/12/25 02:03:19;;;;;;;17.52;7.57;;;;;;;12.87;64.82;101375.19;5074013;28;20045;-67
2022/12/25 02:05:46;;;;;;;18.75;7.95;;;;;;;12.85;64.88;101372.59;5073524;28;20510;-67
2022/12/25 02:08:15;;;;;;;19.08;7.68;;;;;;;12.84;65.25;101378.13;5073964;28;20525;-67
2022/12/25 02:10:43;;;;;;;17.05;7.35;;;;;;;12.83;64.94;101382.63;5074227;28;20101;-67
2022/12/25 02:13:16;;;;;;;23.63;8.48;;;;;;;12.83;64.86;101374.56;5082400;28;20093;-67
2022/12/25 02:16:07;;;;;;;27.00;8.25;;;;;;;12.83;64.93;101379.09;5094307;28;20047;-67
2022/12/25 02:18:59;;;;;;;17.70;7.50;;;;;;;12.82;65.37;101377.38;5094138;28;20490;-68
2022/12/25 02:22:02;;;;;;;16.73;7.47;;;;;;;12.83;65.37;101377.25;5085600;28;20051;-67
2022/12/25 02:24:49;;;;;;;19.08;6.88;;;;;;;12.84;65.12;101376.28;5082465;28;20123;-68
2022/12/25 02:27:43;;;;;;;18.35;7.43;;;;;;;12.84;65.27;101378.97;5098467;28;20063;-67
2022/12/25 02:30:11;;;;;;;19.70;8.38;;;;;;;12.85;65.40;101383.41;5098811;28;20048;-67
2022/12/25 02:32:40;;;;;;;22.85;7.13;;;;;;;12.86;65.47;101381.56;5094229;28;20040;-68
2022/12/25 02:35:24;;;;;;;17.70;7.65;;;;;;;12.84;65.50;101378.13;5094264;28;20069;-67
2022/12/25 02:38:03;;;;;;;21.02;7.38;;;;;;;12.85;65.47;101386.09;5093871;28;20055;-67
2022/12/25 02:40:41;;;;;;;13.45;7.20;;;;;;;12.86;65.23;101379.72;5093952;28;20486;-67
2022/12/25 03:08:46;;;;;;;17.60;6.63;;;;;;;12.88;65.25;101331.94;5073181;28;20144;-68
2022/12/25 03:11:31;;;;;;;14.15;6.90;;;;;;;12.87;65.31;101323.97;5073637;28;20037;-67
2022/12/25 03:16:54;;;;;;;15.57;6.25;;;;;;;12.84;65.20;101299.94;5081163;28;20490;-68
2022/12/25 03:28:00;;;;;;;12.18;5.88;;;;;;;12.73;65.07;101277.34;5100126;28;20066;-68
2022/12/25 03:35:21;;;;;;;12.02;5.47;;;;;;;12.66;65.01;101270.69;5084850;28;20048;-68
2022/12/25 04:38:13;;;;;;;11.32;6.30;;;;;;;11.91;64.98;101256.31;5095899;28;20040;-68
2022/12/25 04:40:39;;;;;;;19.40;6.72;;;;;;;11.91;65.54;101266.22;5096070;28;20040;-67
2022/12/25 04:43:06;;;;;;;11.55;6.72;;;;;;;11.94;65.14;101274.06;5095156;28;20044;-67
2022/12/25 04:45:32;;;;;;;11.35;6.20;;;;;;;11.94;65.19;101272.25;5096052;28;20055;-67
2022/12/25 04:47:59;;;;;;;9.80;6.15;;;;;;;11.95;65.46;101273.09;5095854;28;20044;-67
2022/12/25 04:50:26;;;;;;;12.77;6.47;;;;;;;11.96;65.15;101267.63;5094857;28;20048;-67
2022/12/25 04:52:52;;;;;;;9.10;6.07;;;;;;;11.97;65.01;101273.88;5095875;28;20467;-67
2022/12/25 04:55:19;;;;;;;12.93;6.68;;;;;;;11.96;65.05;101270.31;5096102;28;20036;-67
2022/12/25 04:57:45;;;;;;;14.95;5.90;;;;;;;11.93;65.10;101267.84;5095643;28;20044;-67
2022/12/25 05:00:12;;;;;;;11.98;6.15;;;;;;;11.90;65.06;101259.97;5092502;28;20051;-67
2022/12/25 05:02:39;;;;;;;9.10;5.43;;;;;;;11.85;64.86;101251.31;5095488;28;20051;-67
2022/12/25 05:05:06;;;;;;;12.38;5.10;;;;;;;11.81;64.94;101268.66;5095587;28;20052;-66
2022/12/25 05:07:33;;;;;;;9.38;5.25;;;;;;;11.78;64.60;101252.72;5095824;28;20060;-66
2022/12/25 05:09:59;;;;;;;10.90;5.53;;;;;;;11.71;64.57;101254.09;5095523;28;20098;-66
2022/12/25 05:12:26;;;;;;;14.45;6.20;;;;;;;11.66;64.61;101256.22;5095617;28;20127;-68
2022/12/25 05:14:52;;;;;;;8.73;5.15;;;;;;;11.64;64.74;101256.34;5095512;28;20040;-67
2022/12/25 05:17:19;;;;;;;12.13;5.32;;;;;;;11.64;64.62;101256.34;5091465;28;20456;-67
2022/12/25 05:19:45;;;;;;;15.57;5.97;;;;;;;11.65;64.84;101259.88;5075345;28;20059;-68
2022/12/25 05:22:12;;;;;;;8.63;5.32;;;;;;;11.65;65.21;101243.75;5075117;28;20094;-67
2022/12/25 05:24:38;;;;;;;10.60;5.38;;;;;;;11.65;65.14;101252.69;5075257;28;20036;-67
2022/12/25 05:27:05;;;;;;;10.63;5.63;;;;;;;11.69;65.14;101250.63;5075204;28;20041;-67
2022/12/25 05:29:32;;;;;;;18.13;6.18;;;;;;;11.69;65.15;101240.75;5075176;28;20045;-67
2022/12/25 05:31:58;;;;;;;15.05;5.70;;;;;;;11.72;65.19;101239.66;5080325;28;20046;-67
2022/12/25 05:34:25;;;;;;;12.48;5.57;;;;;;;11.71;65.52;101249.56;5094290;28;20136;-66
2022/12/25 05:36:51;;;;;;;11.40;5.32;;;;;;;11.74;65.22;101237.72;5075755;28;20036;-66
2022/12/25 05:39:18;;;;;;;10.68;6.07;;;;;;;11.74;65.34;101227.81;5073406;28;20075;-66
2022/12/25 05:41:44;;;;;;;11.40;5.32;;;;;;;11.74;65.14;101235.03;5074413;28;20090;-67
2022/12/25 05:44:12;;;;;;;10.57;5.70;;;;;;;11.75;65.30;101236.75;5074900;28;20431;-66
2022/12/25 05:46:38;;;;;;;12.23;5.10;;;;;;;11.74;65.43;101227.81;5074510;28;20051;-67
2022/12/25 05:49:05;;;;;;;12.93;5.75;;;;;;;11.76;65.30;101227.72;5074470;28;20531;-67
2022/12/25 05:51:32;;;;;;;8.60;5.22;;;;;;;11.78;65.27;101223.97;5073115;28;20048;-66
2022/12/25 05:53:58;;;;;;;10.80;6.00;;;;;;;11.78;65.49;101223.97;5076080;28;20043;-66
2022/12/25 05:56:25;;;;;;;12.57;5.88;;;;;;;11.81;65.29;101230.13;5094516;28;20044;-66
2022/12/25 05:58:52;;;;;;;12.27;5.72;;;;;;;11.80;65.59;101229.25;5094634;28;20079;-66
2022/12/25 06:01:22;;;;;;;9.93;5.05;;;;;;;11.83;65.60;101231.75;5094791;28;20040;-66
2022/12/25 06:03:49;;;;;;;9.40;5.10;;;;;;;11.84;65.47;101221.84;5094297;28;20043;-66
2022/12/25 06:06:16;;;;;;;9.27;5.38;;;;;;;11.87;65.61;101227.00;5094540;28;20042;-66
2022/12/25 06:08:43;;;;;;;8.75;5.45;;;;;;;11.88;65.62;101226.88;5094838;28;20123;-66
2022/12/25 06:11:12;;;;;;;9.40;5.20;;;;;;;11.89;65.68;101211.59;5092493;28;20044;-67
2022/12/25 06:13:39;;;;;;;10.32;5.65;;;;;;;11.92;65.76;101212.28;5094139;28;20069;-67
2022/12/25 06:16:07;;;;;;;10.45;5.40;;;;;;;11.94;65.96;101210.34;5094177;28;20085;-66
2022/12/25 06:18:35;;;;;;;11.05;5.25;;;;;;;11.99;66.06;101199.25;5094295;28;20455;-66
2022/12/25 06:21:10;;;;;;;12.45;5.93;;;;;;;12.02;66.18;101204.41;5094211;28;20085;-66
2022/12/25 06:23:38;;;;;;;11.30;5.13;;;;;;;12.07;66.09;101213.03;5094075;28;20048;-66
2022/12/25 06:26:12;;;;;;;12.07;5.43;;;;;;;12.09;66.20;101206.56;5094063;28;20482;-66
2022/12/25 06:28:39;;;;;;;11.80;5.53;;;;;;;12.13;65.96;101206.34;5079276;28;20037;-65
2022/12/25 06:31:17;;;;;;;8.75;5.25;;;;;;;12.16;66.05;101208.81;5073918;28;20123;-66
2022/12/25 06:33:44;;;;;;;8.98;5.80;;;;;;;12.20;65.78;101199.53;5082715;28;20479;-66
2022/12/25 06:36:13;;;;;;;10.85;6.10;;;;;;;12.23;66.10;101184.00;5073579;28;20503;-66
2022/12/25 06:38:40;;;;;;;13.73;6.22;;;;;;;12.25;65.81;101183.91;5073628;28;20394;-66
2022/12/25 06:41:10;;;;;;;9.25;5.45;;;;;;;12.28;65.61;101189.06;5073762;28;20037;-66
2022/12/25 06:43:37;;;;;;;9.30;5.57;;;;;;;12.30;65.48;101196.06;5073777;28;20040;-67
2022/12/25 06:46:06;;;;;;;9.85;5.90;;;;;;;12.31;65.48;101187.00;5088102;28;20040;-67
2022/12/25 06:48:33;;;;;;;14.88;7.15;;;;;;;12.32;65.45;101171.72;5093484;28;20113;-67
2022/12/25 06:51:01;;;;;;;12.00;6.22;;;;;;;12.31;65.70;101152.00;5093354;28;20052;-66
2022/12/25 06:53:28;;;;;;;17.13;6.20;;;;;;;12.32;65.33;101152.84;5092571;28;20051;-67
2022/12/25 06:56:06;;;;;;;11.00;6.15;;;;;;;12.34;65.60;101151.78;5091526;28;20412;-67
2022/12/25 06:58:33;;;;;;;11.30;6.20;;;;;;;12.31;65.56;101149.31;5093161;28;20069;-66
2022/12/25 07:00:59;;;;;;;10.07;6.53;;;;;;;12.29;65.35;101151.25;5092334;28;20056;-66
2022/12/25 07:03:28;;;;;;;14.82;6.78;;;;;;;12.27;65.31;101145.13;5078984;28;20047;-67
2022/12/25 07:05:55;;;;;;;12.25;7.07;;;;;;;12.28;65.50;101130.69;5073167;28;20040;-66
2022/12/25 07:08:21;;;;;;;11.30;6.43;;;;;;;12.29;65.34;101127.00;5073237;28;20048;-67
2022/12/25 07:10:48;;;;;;;14.43;6.95;;;;;;;12.30;65.21;101123.34;5073547;28;20040;-67
2022/12/25 07:13:14;;;;;;;10.30;6.05;;;;;;;12.31;65.63;101125.06;5073205;28;20032;-66
2022/12/25 07:15:41;;;;;;;10.23;6.55;;;;;;;12.32;65.37;101128.63;5073251;28;20048;-67
2022/12/25 07:18:07;;;;;;;14.88;6.70;;;;;;;12.32;65.57;101128.63;5073304;28;20036;-66
2022/12/25 07:20:35;;;;;;;13.70;6.88;;;;;;;12.33;65.54;101133.03;5071875;28;20052;-67
2022/12/25 07:23:03;;;;;;;11.55;6.32;;;;;;;12.35;65.37;101137.34;5072969;28;20048;-66
2022/12/25 07:25:30;;;;;;;16.08;6.53;;;;;;;12.35;65.31;101148.09;5080070;28;20040;-67
2022/12/25 07:28:03;;;;;;;11.65;6.53;;;;;;;12.36;65.45;101149.81;5090162;28;20068;-69
2022/12/25 07:30:29;;;;;;;13.77;6.15;;;;;;;12.38;65.49;101145.19;5091386;28;20047;-69
2022/12/25 07:32:56;;;;;;;12.52;6.68;;;;;;;12.40;65.62;101156.72;5092183;28;20097;-69
2022/12/25 07:35:23;;;;;;;13.38;6.72;;;;;;;12.40;65.26;101154.00;5092745;28;20062;-69
2022/12/25 07:37:49;;;;;;;13.88;7.00;;;;;;;12.42;65.60;101151.22;5090097;28;20044;-68
2022/12/25 07:40:16;;;;;;;13.35;6.13;;;;;;;12.44;65.61;101161.88;5090575;28;20443;-69
2022/12/25 07:42:43;;;;;;;10.30;6.57;;;;;;;12.45;65.35;101164.44;5090984;28;20040;-68
2022/12/25 07:45:09;;;;;;;12.18;6.32;;;;;;;12.47;65.33;101165.19;5091243;28;20048;-69
2022/12/25 07:47:36;;;;;;;11.27;5.75;;;;;;;12.48;65.46;101157.97;5091378;28;20490;-69
2022/12/25 07:50:03;;;;;;;14.68;5.65;;;;;;;12.48;65.38;101164.22;5091572;28;20040;-68
2022/12/25 07:52:29;;;;;;;9.07;5.40;;;;;;;12.48;65.60;101158.84;5091910;28;20044;-69
2022/12/25 07:54:56;;;;;;;12.23;5.30;;;;;;;12.49;65.81;101124.69;5093212;28;20039;-68
2022/12/25 07:57:23;;;;;;;10.98;5.25;;;;;;;12.47;65.36;101118.53;5091969;28;20089;-69
2022/12/25 07:59:49;;;;;;;11.43;6.10;;;;;;;12.49;65.38;101120.16;5092978;28;20044;-69
2022/12/25 08:02:16;;;;;;;10.18;5.63;;;;;;;12.49;65.41;101125.53;5092754;28;20078;-69
2022/12/25 08:04:42;;;;;;;9.45;5.30;;;;;;;12.51;65.39;101134.38;5094494;28;20044;-69
2022/12/25 08:07:09;;;;;;;9.35;4.85;;;;;;;12.53;65.64;101159.34;5096862;28;20036;-69
2022/12/25 08:09:35;;;;;;;9.20;5.28;;;;;;;12.55;65.61;101181.66;5096938;28;20044;-69
2022/12/25 08:12:02;;;;;;;7.07;4.53;;;;;;;12.56;65.44;101194.16;5095358;28;20047;-68
2022/12/25 08:14:29;;;;;;;9.48;5.22;;;;;;;12.59;65.15;101199.31;5096946;28;20032;-68
2022/12/25 08:16:55;;;;;;;8.75;4.50;;;;;;;12.61;65.52;101183.88;5095206;28;20059;-68
2022/12/25 08:19:22;;;;;;;7.43;4.10;;;;;;;12.63;65.41;101183.78;5096460;28;20090;-68
2022/12/25 08:21:48;;;;;;;10.10;4.50;;;;;;;12.64;65.47;101189.09;5096664;28;20434;-69
2022/12/25 08:24:15;;;;;;;8.65;4.57;;;;;;;12.66;65.15;101192.53;5096554;28;20397;-68
2022/12/25 08:26:42;;;;;;;7.22;5.13;;;;;;;12.68;65.08;101195.09;5095261;28;20052;-68
2022/12/25 08:29:08;;;;;;;9.75;4.78;;;;;;;12.70;65.31;101203.94;5096618;28;20038;-69
2022/12/25 08:31:35;;;;;;;7.70;4.55;;;;;;;12.72;65.52;101199.28;5096505;28;20032;-70
2022/12/25 08:34:10;;;;;;;6.65;4.18;;;;;;;12.71;65.47;101193.03;5096631;28;20494;-69
2022/12/25 08:36:37;;;;;;;9.32;4.35;;;;;;;12.69;65.22;101178.81;5096594;28;20032;-70
2022/12/25 08:39:04;;;;;;;8.30;4.45;;;;;;;12.66;65.23;101179.06;5096383;28;20052;-69
2022/12/25 08:41:31;;;;;;;8.85;4.72;;;;;;;12.66;65.33;101173.66;5096092;28;20044;-70
2022/12/25 08:43:57;;;;;;;9.55;3.88;;;;;;;12.66;65.15;101176.34;5095973;28;20113;-69
2022/12/25 08:46:24;;;;;;;9.10;4.43;;;;;;;12.65;65.55;101169.25;5096036;28;20051;-69
2022/12/25 08:48:50;;;;;;;8.10;3.92;;;;;;;12.66;65.58;101176.34;5096054;28;20376;-70
2022/12/25 08:51:20;;;;;;;10.98;4.28;;;;;;;12.68;65.32;101182.50;5094639;28;20567;-69
2022/12/25 08:53:48;;;;;;;8.43;4.15;;;;;;;12.69;65.64;101183.34;5096038;28;20086;-69
2022/12/25 08:56:17;;;;;;;6.55;3.88;;;;;;;12.70;65.54;101188.63;5095860;28;20044;-69
2022/12/25 08:58:44;;;;;;;6.63;4.10;;;;;;;12.70;65.55;101187.78;5096025;28;20150;-69
2022/12/25 09:01:12;;;;;;;7.53;3.65;;;;;;;12.69;65.28;101196.81;5095698;28;20048;-69
2022/12/25 09:03:38;;;;;;;7.65;3.90;;;;;;;12.70;65.53;101190.47;5094396;28;20040;-69
2022/12/25 09:06:09;;;;;;;7.63;4.93;;;;;;;12.69;65.22;101192.31;5095717;28;20486;-69
2022/12/25 09:08:36;;;;;;;6.65;4.07;;;;;;;12.68;65.53;101178.94;5095554;28;20074;-69
2022/12/25 09:11:13;;;;;;;8.45;4.15;;;;;;;12.67;65.40;101183.47;5095558;28;20048;-70
2022/12/25 09:13:40;;;;;;;6.80;3.90;;;;;;;12.68;65.51;101174.41;5095379;28;20051;-69
2022/12/25 09:16:09;;;;;;;7.90;4.13;;;;;;;12.72;65.80;101167.81;5094978;28;20043;-69
2022/12/25 09:18:36;;;;;;;7.53;4.35;;;;;;;12.74;65.82;101154.22;5095667;28;20393;-70
2022/12/25 09:21:06;;;;;;;6.18;4.00;;;;;;;12.73;65.79;101147.13;5095501;28;20475;-69
2022/12/25 09:23:33;;;;;;;6.95;4.20;;;;;;;12.71;65.57;101159.84;5095190;28;20044;-69
2022/12/25 09:26:02;;;;;;;7.68;3.90;;;;;;;12.71;65.50;101181.41;5095209;28;20064;-72
2022/12/25 09:28:29;;;;;;;7.68;4.15;;;;;;;12.71;65.97;101179.56;5085131;28;20037;-73
2022/12/25 09:30:55;;;;;;;8.40;4.60;;;;;;;12.73;65.95;101185.72;5095435;28;20458;-70
2022/12/25 09:33:22;;;;;;;6.90;4.43;;;;;;;12.77;65.66;101194.41;5094797;28;20055;-69
2022/12/25 09:36:03;;;;;;;11.65;4.80;;;;;;;12.82;66.00;101180.59;5095132;28;20486;-70
2022/12/25 09:38:31;;;;;;;8.20;4.45;;;;;;;12.83;65.75;101175.09;5094432;28;20141;-70
2022/12/25 09:41:02;;;;;;;9.73;4.85;;;;;;;12.83;65.96;101168.84;5086502;28;20039;-69
2022/12/25 09:43:32;;;;;;;7.80;4.53;;;;;;;12.84;65.69;101171.41;5094724;28;20044;-69
2022/12/25 09:46:01;;;;;;;10.05;5.35;;;;;;;12.85;65.62;101172.28;5102823;28;20086;-69
2022/12/25 09:48:32;;;;;;;7.00;4.20;;;;;;;12.83;66.05;101167.00;5093696;28;20552;-69
2022/12/25 09:51:01;;;;;;;8.10;4.50;;;;;;;12.84;65.96;101154.41;5094938;28;20425;-69
2022/12/25 09:53:40;;;;;;;10.20;4.80;;;;;;;12.85;65.68;101138.09;5095026;28;20040;-69
2022/12/25 09:56:15;;;;;;;7.78;4.45;;;;;;;12.84;65.86;101143.59;5095057;28;20379;-69
2022/12/25 09:58:42;;;;;;;6.93;4.15;;;;;;;12.85;66.01;101153.41;5094663;28;20135;-72
2022/12/25 10:01:21;;;;;;;8.57;3.92;;;;;;;12.86;66.09;101152.44;5094521;28;20554;-72
2022/12/25 10:04:10;;;;;;;8.00;4.30;;;;;;;12.84;66.15;101125.59;5094223;28;20548;-72
2022/12/25 10:06:43;;;;;;;9.35;5.00;;;;;;;12.82;65.86;101121.31;5094735;28;20040;-72
2022/12/25 10:09:33;;;;;;;9.02;4.30;;;;;;;12.82;65.99;101130.25;5094597;28;20040;-72
2022/12/25 10:12:00;;;;;;;7.65;4.97;;;;;;;12.83;66.10;101125.72;5094666;28;20124;-72
2022/12/25 10:14:41;;;;;;;9.63;4.78;;;;;;;12.88;66.14;101127.09;5094371;28;20495;-71
2022/12/25 10:17:35;;;;;;;5.70;4.22;;;;;;;12.95;66.32;101131.03;5080267;28;20032;-72
2022/12/25 10:20:14;;;;;;;11.50;5.03;;;;;;;13.02;66.27;101136.81;5093253;28;20436;-71
2022/12/25 10:22:50;;;;;;;9.15;4.80;;;;;;;13.07;66.22;101117.59;5083710;28;20419;-73
2022/12/25 10:25:18;;;;;;;;;;;;;;;13.13;65.72;101107.19;5074493;28;20048;-71
2022/12/25 10:27:51;;;;;;;6.28;4.18;;;;;;;13.15;65.83;101110.63;5089447;28;20281;-72
2022/12/25 10:30:21;;;;;;;7.32;4.15;;;;;;;13.11;65.96;101109.13;5093352;28;20060;-72
2022/12/25 10:32:48;;;;;;;7.40;4.65;;;;;;;13.08;65.69;101106.69;5092893;28;20036;-73
2022/12/25 10:35:19;;;;;;;10.82;4.90;;;;;;;13.03;66.04;101107.03;5094482;28;20117;-71
2022/12/25 10:37:59;;;;;;;9.93;5.50;;;;;;;13.03;65.90;101112.44;5092974;28;20108;-72
2022/12/25 10:40:57;;;;;;;7.53;5.82;;;;;;;13.03;66.26;101100.78;5090476;28;20125;-71
2022/12/25 10:43:31;;;;;;;7.50;5.28;;;;;;;13.04;66.10;101095.28;5073529;28;20135;-72
2022/12/25 10:45:58;;;;;;;10.60;6.25;;;;;;;13.03;66.13;101104.34;5087136;28;20393;-72
2022/12/25 10:48:28;;;;;;;9.82;5.68;;;;;;;13.04;65.81;101091.72;5092060;28;20040;-72
2022/12/25 10:50:55;;;;;;;6.22;5.07;;;;;;;13.02;66.17;101094.53;5093571;28;20036;-71
2022/12/25 10:53:27;;;;;;;7.40;4.88;;;;;;;13.04;66.54;101106.06;5091163;28;20040;-72
2022/12/25 10:56:02;;;;;;;11.82;5.32;;;;;;;13.04;66.39;101108.75;5092770;28;20053;-71
2022/12/25 10:58:30;;;;;;;9.65;5.65;;;;;;;13.08;66.45;101103.13;5092996;28;20444;-71
2022/12/25 11:01:07;;;;;;;10.95;5.80;;;;;;;13.07;66.13;101106.81;5092825;28;20092;-71
2022/12/25 11:03:37;;;;;;;10.30;5.72;;;;;;;13.08;66.00;101085.13;5092591;28;20491;-71
2022/12/25 11:06:05;;;;;;;9.07;5.63;;;;;;;13.09;66.09;101076.03;5085998;28;20040;-72
2022/12/25 11:08:33;;;;;;;7.15;5.15;;;;;;;13.09;66.02;101050.91;5093528;28;20039;-71
2022/12/25 11:11:04;;;;;;;11.98;5.78;;;;;;;13.12;66.43;101034.50;5092845;28;20047;-70
2022/12/25 11:13:39;;;;;;;8.38;5.10;;;;;;;13.15;66.19;101045.91;5093333;28;20067;-71
2022/12/25 11:16:24;;;;;;;6.97;5.05;;;;;;;13.19;65.94;101052.81;5081667;28;20036;-71
2022/12/25 11:18:53;;;;;;;12.45;4.78;;;;;;;13.22;66.30;101057.09;5075732;28;20239;-71
2022/12/25 11:21:26;;;;;;;10.00;5.00;;;;;;;13.27;66.31;101054.91;5092240;28;20044;-70
2022/12/25 11:23:57;;;;;;;8.10;4.18;;;;;;;13.28;66.31;101046.69;5093253;28;20047;-71
2022/12/25 11:26:25;;;;;;;6.85;4.40;;;;;;;13.31;66.05;101045.56;5092525;28;20059;-72
2022/12/25 11:28:54;;;;;;;9.32;4.43;;;;;;;13.30;66.03;101044.72;5092635;28;20032;-71
2022/12/25 11:31:28;;;;;;;7.30;4.25;;;;;;;13.31;66.06;101037.50;5092474;28;20048;-72
2022/12/25 11:34:04;;;;;;;8.73;4.53;;;;;;;13.31;65.80;101035.66;5092463;28;20035;-71
2022/12/25 11:36:48;;;;;;;7.75;4.72;;;;;;;13.31;66.28;101030.25;5092317;28;20044;-72
2022/12/25 11:39:15;;;;;;;8.18;4.72;;;;;;;13.35;66.04;101009.28;5094924;28;20044;-72
2022/12/25 11:41:42;;;;;;;7.72;4.78;;;;;;;13.35;66.02;101007.44;5085430;28;20387;-72
2022/12/25 11:44:25;;;;;;;8.55;4.95;;;;;;;13.38;66.04;101000.97;5076998;28;20044;-72
2022/12/25 11:46:54;;;;;;;7.63;4.50;;;;;;;13.36;66.23;101001.06;5080116;28;20084;-72
2022/12/25 11:49:22;;;;;;;10.95;4.18;;;;;;;13.38;66.13;101000.09;5095429;28;20122;-71
2022/12/25 11:51:52;;;;;;;7.45;4.45;;;;;;;13.38;65.81;100992.00;5076963;28;20281;-73
2022/12/25 11:54:42;;;;;;;10.15;5.40;;;;;;;13.35;65.76;100985.88;5096442;28;20131;-73
2022/12/25 11:57:10;;;;;;;11.35;4.82;;;;;;;13.35;65.73;100988.56;5096489;28;20048;-72
2022/12/25 11:59:48;;;;;;;7.25;4.50;;;;;;;13.33;65.83;100990.53;5096885;28;20490;-72
2022/12/25 12:02:15;;;;;;;8.52;4.60;;;;;;;13.35;65.76;100991.25;5094406;28;20493;-73
2022/12/25 12:04:46;;;;;;;8.45;5.22;;;;;;;13.36;65.97;100990.28;5096565;28;20036;-72
2022/12/25 12:07:26;;;;;;;7.60;5.03;;;;;;;13.37;66.22;100985.75;5096975;28;20058;-71
2022/12/25 12:10:06;;;;;;;7.97;4.60;;;;;;;13.40;65.79;100976.56;5095921;28;20124;-73
2022/12/25 12:12:45;;;;;;;9.63;5.40;;;;;;;13.41;65.81;100962.97;5096622;28;20036;-72
2022/12/25 12:15:42;;;;;;;7.22;4.88;;;;;;;13.39;66.15;100956.84;5096920;28;20044;-72
2022/12/25 12:18:24;;;;;;;7.50;4.93;;;;;;;13.37;65.65;100950.69;5095989;28;20375;-72
2022/12/25 12:20:57;;;;;;;9.40;5.28;;;;;;;13.38;65.86;100957.81;5096212;28;20055;-72
2022/12/25 12:23:25;;;;;;;6.80;5.55;;;;;;;13.35;66.00;100950.81;5092401;28;20387;-72
2022/12/25 12:25:52;;;;;;;8.25;5.15;;;;;;;13.35;66.16;100955.34;5088892;28;20051;-72
2022/12/25 12:28:38;;;;;;;8.02;5.32;;;;;;;13.33;66.16;100950.06;5076252;28;20041;-72
2022/12/25 12:31:07;;;;;;;6.53;4.93;;;;;;;13.33;65.85;100950.06;5091622;28;20410;-72
2022/12/25 12:33:49;;;;;;;7.65;5.30;;;;;;;13.30;66.00;100957.56;5094699;28;20098;-72
2022/12/25 12:36:18;;;;;;;9.00;5.53;;;;;;;13.27;65.77;100950.56;5095860;28;20044;-71
2022/12/25 12:39:00;;;;;;;7.15;5.55;;;;;;;13.26;66.23;100951.53;5095678;28;20571;-71
2022/12/25 12:41:43;;;;;;;10.23;5.90;;;;;;;13.23;66.42;100951.78;5084755;28;20401;-71
2022/12/25 12:44:12;;;;;;;8.40;5.43;;;;;;;13.26;66.49;100935.38;5076208;28;20119;-72
2022/12/25 12:46:52;;;;;;;7.55;6.00;;;;;;;13.26;66.32;100935.38;5089185;28;20036;-71
2022/12/25 12:49:21;;;;;;;11.05;6.20;;;;;;;13.27;66.27;100926.28;5094322;28;20050;-72
2022/12/25 12:51:48;;;;;;;10.27;5.63;;;;;;;13.29;66.40;100920.78;5095054;28;20047;-72
2022/12/25 12:54:24;;;;;;;9.50;6.03;;;;;;;13.31;66.59;100908.88;5094716;28;20040;-72
2022/12/25 12:57:03;;;;;;;8.60;6.38;;;;;;;13.37;66.25;100931.78;5095711;28;20040;-72
2022/12/25 12:59:45;;;;;;;11.88;6.72;;;;;;;13.42;66.54;100931.44;5095421;28;20048;-72
2022/12/25 13:02:18;;;;;;;14.20;7.72;;;;;;;13.42;66.52;100932.31;5095252;28;20065;-72
2022/12/25 13:05:19;;;;;;;10.25;7.18;;;;;;;13.43;66.17;100914.28;5095893;28;20035;-71
2022/12/25 13:08:21;;;;;;;9.85;6.88;;;;;;;13.45;66.23;100904.22;5095335;28;20046;-71
2022/12/25 13:10:51;;;;;;;10.05;7.85;;;;;;;13.46;66.21;100903.25;5095423;28;20055;-71
2022/12/25 13:13:26;;;;;;;12.00;8.07;;;;;;;13.45;66.32;100910.47;5095304;28;20483;-71
2022/12/25 13:15:54;;;;;;;12.40;7.90;;;;;;;13.47;66.58;100910.34;5095448;28;20039;-71
2022/12/25 13:18:21;;;;;;;9.35;8.25;;;;;;;13.49;66.33;100900.28;5095213;28;20044;-71
2022/12/25 13:20:54;;;;;;;13.02;8.63;;;;;;;13.49;66.48;100900.28;5095289;28;20044;-71